Time;durP1;ratioP1;P1;durP2;ratioP2;P2;SDS_P1;SDS_P2;PMS_P1;PMS_P2;Temp;Humidity;BMP_temperature;BMP_pressure;BME280_temperature;BME280_humidity;BME280_pressure;Samples;Min_cycle;Max_cycle;Signal;HPM_P1;HPM_P2
2021/09/14 00:00:15;;;;;;;6.33;5.17;;;13.20;93.40;;;;;;2058570;28;20175;-64
2021/09/14 00:01:15;;;;;;;7.30;5.15;;;13.10;92.70;;;;;;2058487;28;20277;-64
2021/09/14 00:02:16;;;;;;;8.13;5.37;;;13.10;92.80;;;;;;2058542;28;20202;-64
2021/09/14 00:03:17;;;;;;;8.47;5.40;;;13.10;92.80;;;;;;2058731;28;20416;-64
2021/09/14 00:04:17;;;;;;;7.07;5.80;;;13.10;92.80;;;;;;2058438;28;20261;-65
2021/09/14 00:05:18;;;;;;;6.97;6.20;;;13.10;93.10;;;;;;2058585;28;20203;-65
2021/09/14 00:06:19;;;;;;;7.27;5.30;;;13.10;93.10;;;;;;2058747;28;20265;-64
2021/09/14 00:07:19;;;;;;;7.50;5.73;;;13.10;93.00;;;;;;2058599;28;20205;-65
2021/09/14 00:08:20;;;;;;;7.47;5.57;;;13.10;93.00;;;;;;2058579;28;20183;-64
2021/09/14 00:09:21;;;;;;;9.63;5.77;;;13.10;93.00;;;;;;2058596;28;20171;-64
2021/09/14 00:10:22;;;;;;;6.97;5.30;;;13.00;93.00;;;;;;2058348;28;20175;-64
2021/09/14 00:11:22;;;;;;;8.80;5.57;;;13.00;93.00;;;;;;2058244;28;20179;-65
2021/09/14 00:12:23;;;;;;;10.83;5.27;;;13.00;92.90;;;;;;2058573;28;20195;-64
2021/09/14 00:13:24;;;;;;;7.60;5.63;;;13.00;92.90;;;;;;2058514;28;20661;-64
2021/09/14 00:14:25;;;;;;;6.30;5.70;;;13.00;93.00;;;;;;2058582;28;20194;-64
2021/09/14 00:15:25;;;;;;;8.60;5.60;;;13.00;92.90;;;;;;2058599;28;20247;-64
2021/09/14 00:16:26;;;;;;;7.03;5.73;;;13.00;92.90;;;;;;2058533;28;20179;-65
2021/09/14 00:17:27;;;;;;;6.70;5.70;;;12.90;92.90;;;;;;2058446;28;20190;-63
2021/09/14 00:18:27;;;;;;;6.93;5.70;;;12.90;93.00;;;;;;2058655;28;20179;-64
2021/09/14 00:19:28;;;;;;;6.13;5.40;;;12.90;93.00;;;;;;2058447;28;20175;-65
2021/09/14 00:20:29;;;;;;;8.37;5.70;;;12.90;93.10;;;;;;2058558;28;20191;-64
2021/09/14 00:21:30;;;;;;;6.93;5.80;;;12.90;93.10;;;;;;2057494;28;20187;-65
2021/09/14 00:22:30;;;;;;;7.70;5.67;;;12.90;93.00;;;;;;2057884;28;20214;-64
2021/09/14 00:23:31;;;;;;;6.67;5.33;;;12.90;93.00;;;;;;2058498;28;20191;-64
2021/09/14 00:24:32;;;;;;;7.03;5.90;;;12.90;93.00;;;;;;2058667;28;20215;-63
2021/09/14 00:25:35;;;;;;;8.50;5.27;;;12.90;93.00;;;;;;2058497;28;20651;-63
2021/09/14 00:26:36;;;;;;;7.03;5.68;;;12.90;93.00;;;;;;2058423;28;20187;-64
2021/09/14 00:27:37;;;;;;;5.83;5.23;;;12.80;93.10;;;;;;2058443;28;20226;-64
2021/09/14 00:28:38;;;;;;;6.15;5.25;;;12.90;93.10;;;;;;2058596;28;20440;-64
2021/09/14 00:29:38;;;;;;;7.03;5.60;;;12.80;93.20;;;;;;2058337;28;20241;-65
2021/09/14 00:30:39;;;;;;;6.57;5.33;;;12.80;93.30;;;;;;2058450;28;20302;-64
2021/09/14 00:31:40;;;;;;;6.20;5.60;;;12.80;93.30;;;;;;2058195;28;20202;-64
2021/09/14 00:32:41;;;;;;;5.60;4.93;;;12.80;93.20;;;;;;2058485;28;20187;-64
2021/09/14 00:33:41;;;;;;;8.57;6.43;;;12.80;93.20;;;;;;2058337;28;20182;-64
2021/09/14 00:34:42;;;;;;;11.03;6.57;;;12.80;93.40;;;;;;2058473;28;20600;-65
2021/09/14 00:35:43;;;;;;;7.53;5.80;;;12.80;93.50;;;;;;2058384;28;20190;-64
2021/09/14 00:36:44;;;;;;;7.97;6.07;;;12.70;93.60;;;;;;2058811;28;20194;-64
2021/09/14 00:37:44;;;;;;;8.23;5.77;;;12.70;93.50;;;;;;2058620;28;20633;-64
2021/09/14 00:38:45;;;;;;;8.60;6.33;;;12.70;93.60;;;;;;2058676;28;20186;-64
2021/09/14 00:39:46;;;;;;;6.60;5.83;;;12.70;93.60;;;;;;2058368;28;20207;-64
2021/09/14 00:40:47;;;;;;;9.07;6.30;;;12.70;93.80;;;;;;2058414;28;20397;-65
2021/09/14 00:41:47;;;;;;;7.77;5.73;;;12.70;93.80;;;;;;2058278;28;20226;-65
2021/09/14 00:42:48;;;;;;;6.93;5.70;;;12.70;93.80;;;;;;2058500;28;20187;-65
2021/09/14 00:43:57;;;;;;;8.37;5.30;;;12.70;93.60;;;;;;2058273;28;20241;-65
2021/09/14 00:44:58;;;;;;;6.47;5.38;;;12.70;93.80;;;;;;2065804;28;20828;-64
2021/09/14 00:45:59;;;;;;;7.77;6.00;;;12.70;93.80;;;;;;2065775;28;20179;-65
2021/09/14 00:47:00;;;;;;;7.38;5.38;;;12.70;93.80;;;;;;2057641;28;20182;-64
2021/09/14 00:48:01;;;;;;;7.37;5.50;;;12.70;93.60;;;;;;2058101;28;20684;-65
2021/09/14 00:49:02;;;;;;;7.00;6.00;;;12.60;93.50;;;;;;2058186;28;20182;-63
2021/09/14 00:50:05;;;;;;;7.45;5.68;;;12.60;93.40;;;;;;2058293;28;20179;-64
2021/09/14 00:51:06;;;;;;;7.30;5.90;;;12.70;93.40;;;;;;2058174;28;20264;-64
2021/09/14 00:52:10;;;;;;;7.83;5.00;;;12.60;93.40;;;;;;2058096;28;20728;-64
2021/09/14 00:53:11;;;;;;;8.27;5.95;;;12.60;93.40;;;;;;2065862;28;20183;-65
2021/09/14 00:54:16;;;;;;;8.23;5.70;;;12.60;93.40;;;;;;2065590;28;20258;-64
2021/09/14 00:55:17;;;;;;;8.70;6.32;;;12.60;93.40;;;;;;2057718;28;20621;-63
2021/09/14 00:56:19;;;;;;;6.50;5.37;;;12.60;93.50;;;;;;2057779;28;20210;-64
2021/09/14 00:57:19;;;;;;;8.38;5.85;;;12.60;93.60;;;;;;2058249;28;20552;-64
2021/09/14 00:58:20;;;;;;;6.40;5.43;;;12.50;93.50;;;;;;2058340;28;20242;-63
2021/09/14 00:59:20;;;;;;;6.77;5.63;;;12.60;93.60;;;;;;2058132;28;20171;-65
2021/09/14 01:00:21;;;;;;;9.47;5.27;;;12.50;93.70;;;;;;2065689;28;20174;-64
2021/09/14 01:01:22;;;;;;;11.90;5.97;;;12.50;93.80;;;;;;2065303;28;20535;-64
2021/09/14 01:02:23;;;;;;;9.27;6.30;;;12.50;93.90;;;;;;2058115;28;20225;-65
2021/09/14 01:03:24;;;;;;;6.15;5.20;;;12.50;94.10;;;;;;2058119;28;20183;-64
2021/09/14 01:04:24;;;;;;;6.63;5.80;;;12.40;94.00;;;;;;2058165;28;20265;-63
2021/09/14 01:05:25;;;;;;;7.00;5.80;;;12.50;94.50;;;;;;2058044;28;20259;-65
2021/09/14 01:06:26;;;;;;;6.83;5.43;;;12.40;93.90;;;;;;2058283;28;20537;-63
2021/09/14 01:07:26;;;;;;;7.27;5.40;;;12.40;93.80;;;;;;2058173;28;20175;-64
2021/09/14 01:08:30;;;;;;;9.17;5.57;;;12.40;93.70;;;;;;2058295;28;20174;-64
2021/09/14 01:09:36;;;;;;;9.35;5.75;;;12.40;93.70;;;;;;2058213;28;20186;-64
2021/09/14 01:10:37;;;;;;;7.28;5.78;;;12.40;93.70;;;;;;2058065;28;20195;-64
2021/09/14 01:11:40;;;;;;;7.63;5.78;;;12.40;93.90;;;;;;2057302;28;20182;-64
2021/09/14 01:12:41;;;;;;;9.57;5.95;;;12.40;93.90;;;;;;2057891;28;20175;-64
2021/09/14 01:13:42;;;;;;;7.40;5.80;;;12.40;94.00;;;;;;2065437;28;20178;-64
2021/09/14 01:14:54;;;;;;;8.43;5.53;;;12.40;94.00;;;;;;2058197;28;20190;-65
2021/09/14 01:15:55;;;;;;;8.43;5.63;;;12.40;94.10;;;;;;2058007;28;20209;-64
2021/09/14 01:16:56;;;;;;;8.40;5.77;;;12.40;94.10;;;;;;2058057;28;20179;-63
2021/09/14 01:17:57;;;;;;;6.90;5.90;;;12.40;94.10;;;;;;2065466;28;20523;-64
2021/09/14 01:18:59;;;;;;;7.60;5.73;;;12.40;94.10;;;;;;2065523;28;20198;-64
2021/09/14 01:20:00;;;;;;;6.22;5.20;;;12.40;94.00;;;;;;2065646;28;20182;-63
2021/09/14 01:21:01;;;;;;;6.50;5.63;;;12.40;93.80;;;;;;2065220;28;20261;-63
2021/09/14 01:22:02;;;;;;;7.13;5.50;;;12.40;93.80;;;;;;2057652;28;20199;-64
2021/09/14 01:23:03;;;;;;;7.63;5.78;;;12.40;93.70;;;;;;2057345;28;20599;-63
2021/09/14 01:24:05;;;;;;;7.27;5.53;;;12.40;93.80;;;;;;2057435;28;20206;-64
2021/09/14 01:25:21;;;;;;;9.80;5.82;;;12.30;93.80;;;;;;2058097;28;20187;-64
2021/09/14 01:26:22;;;;;;;7.65;5.90;;;12.40;93.80;;;;;;2058183;28;20230;-63
2021/09/14 01:27:24;;;;;;;9.03;5.97;;;12.40;94.40;;;;;;2058039;28;20317;-64
2021/09/14 01:28:24;;;;;;;7.68;5.70;;;12.30;93.90;;;;;;2058012;28;20205;-63
2021/09/14 01:30:46;;;;;;;6.93;5.22;;;12.30;93.90;;;;;;2063228;28;20289;-63
2021/09/14 01:31:46;;;;;;;8.77;5.57;;;12.30;93.90;;;;;;2057543;28;20214;-63
2021/09/14 01:32:54;;;;;;;7.77;5.70;;;12.30;93.90;;;;;;2057362;28;20202;-63
2021/09/14 01:33:55;;;;;;;6.75;5.57;;;12.30;94.00;;;;;;2050485;28;20239;-63
2021/09/14 01:35:11;;;;;;;7.27;5.60;;;12.30;94.10;;;;;;2057315;28;20736;-64
2021/09/14 01:36:11;;;;;;;6.82;5.47;;;12.20;94.10;;;;;;2057782;28;20533;-63
2021/09/14 01:37:12;;;;;;;8.17;5.53;;;12.20;94.20;;;;;;2057876;28;20179;-63
2021/09/14 01:38:13;;;;;;;6.97;5.60;;;12.20;94.70;;;;;;2057742;28;20642;-63
2021/09/14 01:39:14;;;;;;;7.10;5.37;;;12.20;94.10;;;;;;2065299;28;20190;-63
2021/09/14 01:40:16;;;;;;;7.10;5.60;;;12.20;94.10;;;;;;2065182;28;20179;-63
2021/09/14 01:41:17;;;;;;;8.68;5.68;;;12.20;94.20;;;;;;2056963;28;20272;-63
2021/09/14 01:42:17;;;;;;;7.33;5.83;;;12.20;94.30;;;;;;2056995;28;20243;-63
2021/09/14 01:43:18;;;;;;;6.47;5.40;;;12.20;94.40;;;;;;2057705;28;20183;-63
2021/09/14 01:44:19;;;;;;;6.43;5.60;;;12.20;94.30;;;;;;2065162;28;20170;-63
2021/09/14 01:45:19;;;;;;;6.50;5.77;;;12.30;94.20;;;;;;2065452;28;20230;-64
2021/09/14 01:46:20;;;;;;;8.17;5.87;;;12.30;94.10;;;;;;2057843;28;20179;-64
2021/09/14 01:47:21;;;;;;;6.40;5.43;;;12.20;93.90;;;;;;2057764;28;20522;-64
2021/09/14 01:48:22;;;;;;;6.43;5.07;;;12.20;93.90;;;;;;2057702;28;20176;-65
2021/09/14 01:49:22;;;;;;;6.53;5.60;;;12.30;93.90;;;;;;2057817;28;20171;-63
2021/09/14 01:50:23;;;;;;;7.63;5.77;;;12.20;93.90;;;;;;2057767;28;20619;-63
2021/09/14 01:51:24;;;;;;;8.83;5.50;;;12.20;93.90;;;;;;2057468;28;20322;-64
2021/09/14 01:52:27;;;;;;;10.80;5.82;;;12.20;94.00;;;;;;2056972;28;20222;-64
2021/09/14 01:53:28;;;;;;;11.77;5.97;;;12.10;94.10;;;;;;2057145;28;20259;-65
2021/09/14 01:54:29;;;;;;;7.77;5.50;;;12.10;94.00;;;;;;2057923;28;20175;-63
2021/09/14 01:55:30;;;;;;;6.07;5.20;;;12.20;94.00;;;;;;2057733;28;20677;-63
2021/09/14 01:56:31;;;;;;;7.75;5.50;;;12.10;93.90;;;;;;2057156;28;20233;-63
2021/09/14 01:57:36;;;;;;;7.40;6.03;;;12.10;93.90;;;;;;2057079;28;20708;-63
2021/09/14 01:58:36;;;;;;;7.93;5.18;;;12.10;93.90;;;;;;2057603;28;20266;-64
2021/09/14 01:59:38;;;;;;;6.57;5.57;;;12.10;93.80;;;;;;2057726;28;20544;-64
2021/09/14 02:00:46;;;;;;;6.35;4.82;;;12.10;93.80;;;;;;2057683;28;20210;-63
2021/09/14 02:01:56;;;;;;;6.05;5.25;;;12.10;93.80;;;;;;2057405;28;20760;-63
2021/09/14 02:05:37;;;;;;;8.15;6.57;;;12.10;94.30;;;;;;2057053;28;20254;-64
2021/09/14 02:06:55;;;;;;;6.05;5.45;;;12.10;94.40;;;;;;2057322;28;20186;-63
2021/09/14 02:08:17;;;;;;;6.80;5.00;;;12.10;94.40;;;;;;2057491;28;20652;-63
2021/09/14 02:23:42;;;;;;;5.72;4.80;;;12.10;94.40;;;;;;2057491;28;20206;-63
2021/09/14 02:24:24;;;;;;;8.65;4.97;;;12.00;94.00;;;;;;2057418;28;20171;-63
2021/09/14 02:59:28;;;;;;;9.00;6.25;;;11.60;93.90;;;;;;2065430;28;20191;-65
2021/09/14 03:00:28;;;;;;;8.10;6.13;;;11.60;93.90;;;;;;2065285;28;20244;-64
2021/09/14 03:01:29;;;;;;;8.77;6.37;;;11.60;94.00;;;;;;2064932;28;20182;-63
2021/09/14 03:02:30;;;;;;;9.13;6.03;;;11.60;93.90;;;;;;2065198;28;20178;-65
2021/09/14 03:03:30;;;;;;;8.20;5.57;;;11.60;94.00;;;;;;2065164;28;20185;-63
2021/09/14 03:04:32;;;;;;;9.20;5.73;;;11.60;93.90;;;;;;2065319;28;20193;-63
2021/09/14 03:05:32;;;;;;;6.03;5.25;;;11.60;93.80;;;;;;2065136;28;20210;-64
2021/09/14 03:06:33;;;;;;;6.53;5.33;;;11.60;93.80;;;;;;2065115;28;20182;-63
2021/09/14 03:07:34;;;;;;;9.27;5.97;;;11.60;93.80;;;;;;2065048;28;20178;-65
2021/09/14 03:08:39;;;;;;;6.00;5.20;;;11.60;93.80;;;;;;2065048;28;20265;-63
2021/09/14 03:09:40;;;;;;;6.28;5.30;;;11.60;93.90;;;;;;2065065;28;20306;-64
2021/09/14 03:10:40;;;;;;;7.43;5.67;;;11.60;93.90;;;;;;2064662;28;20245;-64
2021/09/14 03:11:41;;;;;;;8.13;5.20;;;11.50;93.90;;;;;;2064797;28;20186;-63
2021/09/14 03:12:42;;;;;;;7.00;5.50;;;11.50;93.90;;;;;;2065187;28;20233;-65
2021/09/14 03:13:43;;;;;;;8.97;6.20;;;11.60;94.10;;;;;;2065051;28;20174;-64
2021/09/14 03:14:44;;;;;;;8.60;6.47;;;11.50;94.40;;;;;;2065081;28;20186;-63
2021/09/14 03:15:45;;;;;;;8.75;5.75;;;11.60;94.50;;;;;;2065072;28;20182;-63
2021/09/14 03:16:45;;;;;;;9.70;6.87;;;11.50;94.60;;;;;;2065304;28;20269;-63
2021/09/14 03:17:46;;;;;;;8.30;6.37;;;11.60;94.70;;;;;;2065123;28;20210;-64
2021/09/14 03:18:46;;;;;;;9.10;6.10;;;11.60;94.70;;;;;;2065064;28;20182;-64
2021/09/14 03:19:47;;;;;;;7.93;6.20;;;11.60;94.60;;;;;;2065092;28;20198;-63
2021/09/14 03:20:48;;;;;;;8.70;6.20;;;11.50;94.60;;;;;;2065166;28;20186;-64
2021/09/14 03:21:49;;;;;;;10.27;6.00;;;11.50;94.60;;;;;;2064731;28;20681;-63
2021/09/14 03:22:49;;;;;;;7.60;5.57;;;11.50;94.50;;;;;;2065186;28;20185;-63
2021/09/14 03:23:50;;;;;;;9.23;5.93;;;11.50;94.50;;;;;;2065089;28;20182;-64
2021/09/14 03:24:51;;;;;;;7.03;5.83;;;11.50;94.40;;;;;;2065264;28;20553;-63
2021/09/14 03:25:51;;;;;;;6.30;5.60;;;11.50;94.20;;;;;;2065147;28;20197;-63
2021/09/14 03:26:52;;;;;;;9.63;5.93;;;11.50;94.00;;;;;;2065240;28;20196;-65
2021/09/14 03:27:53;;;;;;;7.30;5.67;;;11.50;93.90;;;;;;2065066;28;20545;-63
2021/09/14 03:28:54;;;;;;;8.10;5.30;;;11.50;93.80;;;;;;2065010;28;20721;-63
2021/09/14 03:29:54;;;;;;;6.00;5.13;;;11.50;93.80;;;;;;2064856;28;20646;-64
2021/09/14 03:30:56;;;;;;;8.27;5.83;;;11.50;93.70;;;;;;2065087;28;20206;-64
2021/09/14 03:31:57;;;;;;;7.32;5.25;;;11.40;93.80;;;;;;2064790;28;20220;-64
2021/09/14 03:32:57;;;;;;;7.60;5.47;;;11.50;93.80;;;;;;2064434;28;20182;-63
2021/09/14 03:33:58;;;;;;;7.07;5.47;;;11.40;93.90;;;;;;2064548;28;20759;-64
2021/09/14 03:34:59;;;;;;;7.40;5.47;;;11.40;93.90;;;;;;2065059;28;20190;-63
2021/09/14 03:35:59;;;;;;;6.20;5.53;;;11.40;94.00;;;;;;2065129;28;20186;-63
2021/09/14 03:37:00;;;;;;;6.80;5.20;;;11.40;94.00;;;;;;2065030;28;20608;-63
2021/09/14 03:38:01;;;;;;;7.10;5.57;;;11.40;94.00;;;;;;2065134;28;20179;-63
2021/09/14 03:39:02;;;;;;;7.40;5.43;;;11.40;94.00;;;;;;2065109;28;20221;-63
2021/09/14 03:40:04;;;;;;;7.43;5.17;;;11.40;94.00;;;;;;2065041;28;20229;-65
2021/09/14 03:41:05;;;;;;;8.50;6.00;;;11.40;94.00;;;;;;2064694;28;20189;-64
2021/09/14 03:42:06;;;;;;;8.03;6.27;;;11.40;94.20;;;;;;2065035;28;20704;-63
2021/09/14 03:43:06;;;;;;;9.40;6.17;;;11.30;94.20;;;;;;2064970;28;20257;-63
2021/09/14 03:44:07;;;;;;;8.13;6.03;;;11.30;94.30;;;;;;2065022;28;20178;-63
2021/09/14 03:45:08;;;;;;;8.87;6.33;;;11.30;94.40;;;;;;2064975;28;20187;-63
2021/09/14 03:46:09;;;;;;;6.07;5.45;;;11.30;94.50;;;;;;2064988;28;20265;-64
2021/09/14 03:47:09;;;;;;;7.57;5.80;;;11.40;94.50;;;;;;2065055;28;20184;-63
2021/09/14 03:48:10;;;;;;;5.93;5.10;;;11.40;94.50;;;;;;2065129;28;20519;-63
2021/09/14 03:49:11;;;;;;;8.00;5.95;;;11.40;94.40;;;;;;2065055;28;20179;-64
2021/09/14 03:50:12;;;;;;;7.23;5.70;;;11.40;94.50;;;;;;2064989;28;20550;-63
2021/09/14 03:51:13;;;;;;;7.55;5.20;;;11.40;94.60;;;;;;2064411;28;20210;-64
2021/09/14 03:52:14;;;;;;;6.43;4.90;;;11.40;94.50;;;;;;2064822;28;20196;-64
2021/09/14 03:53:14;;;;;;;6.37;5.67;;;11.40;94.40;;;;;;2064855;28;20170;-63
2021/09/14 03:54:15;;;;;;;6.23;5.23;;;11.40;94.40;;;;;;2065127;28;20178;-63
2021/09/14 03:55:16;;;;;;;7.30;5.50;;;11.40;94.30;;;;;;2064998;28;20178;-63
2021/09/14 03:56:16;;;;;;;6.30;5.47;;;11.30;94.20;;;;;;2064959;28;20305;-63
2021/09/14 03:57:17;;;;;;;7.50;5.90;;;11.30;94.30;;;;;;2064960;28;20665;-64
2021/09/14 03:58:18;;;;;;;7.10;5.50;;;11.30;94.60;;;;;;2064990;28;20240;-64
2021/09/14 03:59:19;;;;;;;7.67;6.23;;;11.30;94.60;;;;;;2064928;28;20174;-63
2021/09/14 04:00:20;;;;;;;7.45;5.57;;;11.30;94.80;;;;;;2065088;28;20183;-63
2021/09/14 04:01:20;;;;;;;7.10;5.35;;;11.30;94.70;;;;;;2064184;28;20209;-63
2021/09/14 04:02:33;;;;;;;9.77;5.90;;;11.40;94.70;;;;;;2064257;28;20206;-64
2021/09/14 04:03:40;;;;;;;7.55;6.00;;;11.40;94.60;;;;;;2064880;28;20588;-63
2021/09/14 04:05:29;;;;;;;7.20;5.82;;;11.40;94.80;;;;;;2064341;28;20649;-63
2021/09/14 04:07:38;;;;;;;6.78;5.50;;;11.40;94.80;;;;;;2064918;28;20178;-64
2021/09/14 04:09:45;;;;;;;6.93;5.57;;;11.40;94.90;;;;;;2064976;28;20210;-64
2021/09/14 04:10:46;;;;;;;8.10;5.87;;;11.40;94.80;;;;;;2064881;28;20573;-63
2021/09/14 04:11:49;;;;;;;8.93;5.90;;;11.40;94.80;;;;;;2064699;28;20199;-64
2021/09/14 04:12:49;;;;;;;8.23;6.22;;;11.30;94.80;;;;;;2065051;28;20274;-64
2021/09/14 04:13:52;;;;;;;7.27;5.80;;;11.40;94.70;;;;;;2065236;28;20186;-63
2021/09/14 04:14:52;;;;;;;7.88;6.53;;;11.40;94.50;;;;;;2065128;28;20179;-63
2021/09/14 04:15:53;;;;;;;9.47;6.60;;;11.40;94.60;;;;;;2065191;28;20530;-63
2021/09/14 04:16:54;;;;;;;10.00;5.93;;;11.40;94.70;;;;;;2065202;28;20175;-64
2021/09/14 04:17:55;;;;;;;6.73;5.77;;;11.40;94.80;;;;;;2065044;28;20171;-63
2021/09/14 04:18:55;;;;;;;8.60;6.47;;;11.40;94.80;;;;;;2065181;28;20186;-65
2021/09/14 04:19:56;;;;;;;9.67;6.80;;;11.40;94.80;;;;;;2065115;28;20257;-63
2021/09/14 04:20:57;;;;;;;7.87;6.47;;;11.40;94.80;;;;;;2065229;28;20178;-63
2021/09/14 04:21:57;;;;;;;10.30;7.03;;;11.40;94.80;;;;;;2065970;28;20637;-64
2021/09/14 04:23:00;;;;;;;10.23;6.20;;;11.40;94.80;;;;;;2066550;28;20660;-64
2021/09/14 04:24:00;;;;;;;7.53;6.32;;;11.40;94.80;;;;;;2066596;28;20241;-63
2021/09/14 04:25:01;;;;;;;10.00;6.20;;;11.40;94.90;;;;;;2066831;28;20289;-63
2021/09/14 04:26:02;;;;;;;8.43;6.20;;;11.40;94.90;;;;;;2066503;28;20186;-63
2021/09/14 04:27:04;;;;;;;7.80;6.40;;;11.40;95.10;;;;;;2066796;28;20464;-63
2021/09/14 04:28:05;;;;;;;7.28;5.95;;;11.40;95.00;;;;;;2066833;28;20261;-63
2021/09/14 04:29:05;;;;;;;7.83;5.83;;;11.40;95.00;;;;;;2066641;28;20191;-63
2021/09/14 04:30:08;;;;;;;9.27;6.10;;;11.40;94.90;;;;;;2066376;28;20186;-64
2021/09/14 04:31:10;;;;;;;8.35;6.43;;;11.40;94.90;;;;;;2066045;28;20236;-64
2021/09/14 04:32:11;;;;;;;7.82;6.57;;;11.40;95.00;;;;;;2066906;28;20202;-63
2021/09/14 04:33:11;;;;;;;9.40;6.30;;;11.40;95.00;;;;;;2066907;28;20174;-64
2021/09/14 04:34:12;;;;;;;9.93;6.40;;;11.50;95.10;;;;;;2066832;28;20270;-63
2021/09/14 04:35:13;;;;;;;8.13;6.03;;;11.40;95.10;;;;;;2066545;28;20271;-62
2021/09/14 04:36:13;;;;;;;7.80;5.73;;;11.50;95.20;;;;;;2066789;28;20217;-62
2021/09/14 04:37:14;;;;;;;8.93;6.50;;;11.50;95.20;;;;;;2066377;28;20171;-63
2021/09/14 04:38:15;;;;;;;7.53;5.70;;;11.50;95.10;;;;;;2066383;28;20170;-62
2021/09/14 04:39:16;;;;;;;8.60;6.37;;;11.50;95.10;;;;;;2066288;28;20175;-62
2021/09/14 04:40:17;;;;;;;10.57;6.30;;;11.50;95.00;;;;;;2066455;28;20170;-63
2021/09/14 04:41:17;;;;;;;7.77;5.60;;;11.50;95.00;;;;;;2066140;28;20208;-63
2021/09/14 04:42:19;;;;;;;8.40;5.37;;;11.40;95.10;;;;;;2065584;28;20206;-63
2021/09/14 04:43:19;;;;;;;6.88;6.10;;;11.40;95.00;;;;;;2065698;28;20309;-65
2021/09/14 04:44:20;;;;;;;7.80;6.67;;;11.40;95.10;;;;;;2066377;28;20708;-65
2021/09/14 04:45:21;;;;;;;6.27;5.57;;;11.40;95.10;;;;;;2066322;28;20184;-64
2021/09/14 04:46:21;;;;;;;8.83;6.30;;;11.40;95.10;;;;;;2066470;28;20321;-64
2021/09/14 04:47:22;;;;;;;10.97;7.20;;;11.40;95.10;;;;;;2066291;28;20245;-65
2021/09/14 04:48:23;;;;;;;9.67;7.03;;;11.40;95.10;;;;;;2066403;28;20201;-64
2021/09/14 04:49:23;;;;;;;11.00;7.60;;;11.40;95.60;;;;;;2066279;28;20191;-63
2021/09/14 04:50:24;;;;;;;9.03;6.70;;;11.40;95.00;;;;;;2066136;28;20170;-64
2021/09/14 04:51:25;;;;;;;9.37;6.77;;;11.40;95.00;;;;;;2066016;28;20202;-63
2021/09/14 04:52:26;;;;;;;8.30;6.43;;;11.40;94.80;;;;;;2066169;28;20540;-64
2021/09/14 04:53:26;;;;;;;8.57;5.80;;;11.40;94.80;;;;;;2066229;28;20194;-64
2021/09/14 04:54:27;;;;;;;10.07;5.93;;;11.40;94.80;;;;;;2066356;28;20261;-64
2021/09/14 04:55:28;;;;;;;10.53;6.20;;;11.40;94.80;;;;;;2066167;28;20506;-63
2021/09/14 04:56:29;;;;;;;7.43;5.87;;;11.40;94.80;;;;;;2066286;28;20202;-64
2021/09/14 04:57:30;;;;;;;8.17;6.10;;;11.40;94.80;;;;;;2066143;28;20635;-63
2021/09/14 04:58:34;;;;;;;6.80;5.93;;;11.40;94.90;;;;;;2065606;28;20182;-64
2021/09/14 04:59:35;;;;;;;8.77;6.68;;;11.40;94.90;;;;;;2058068;28;20211;-64
2021/09/14 05:00:36;;;;;;;7.27;6.00;;;11.40;94.90;;;;;;2065575;28;20205;-63
2021/09/14 05:01:36;;;;;;;8.43;6.37;;;11.50;95.10;;;;;;2065773;28;20182;-64
2021/09/14 05:02:37;;;;;;;7.67;5.93;;;11.40;95.10;;;;;;2066083;28;20179;-63
2021/09/14 05:03:38;;;;;;;8.00;5.87;;;11.40;95.20;;;;;;2066000;28;20233;-63
2021/09/14 05:04:38;;;;;;;10.93;6.60;;;11.40;95.20;;;;;;2066096;28;20240;-63
2021/09/14 05:05:39;;;;;;;7.67;6.20;;;11.40;95.30;;;;;;2065866;28;20193;-64
2021/09/14 05:06:40;;;;;;;8.50;6.13;;;11.40;95.20;;;;;;2066244;28;20179;-63
2021/09/14 05:07:41;;;;;;;8.80;6.27;;;11.40;95.20;;;;;;2066014;28;20547;-63
2021/09/14 05:08:41;;;;;;;9.27;6.17;;;11.40;95.20;;;;;;2066076;28;20175;-64
2021/09/14 05:09:42;;;;;;;8.90;6.20;;;11.50;95.20;;;;;;2066174;28;20193;-63
2021/09/14 05:10:43;;;;;;;9.37;5.77;;;11.50;95.20;;;;;;2065884;28;20253;-64
2021/09/14 05:11:44;;;;;;;7.33;5.97;;;11.50;95.10;;;;;;2064951;28;20179;-63
2021/09/14 05:12:45;;;;;;;11.52;6.47;;;11.50;95.20;;;;;;2065275;28;20175;-64
2021/09/14 05:13:45;;;;;;;8.83;6.10;;;11.50;95.30;;;;;;2066001;28;20578;-63
2021/09/14 05:14:46;;;;;;;10.57;6.67;;;11.50;95.20;;;;;;2065890;28;20189;-64
2021/09/14 05:15:47;;;;;;;7.53;5.90;;;11.50;95.20;;;;;;2065944;28;20174;-64
2021/09/14 05:16:48;;;;;;;7.10;5.50;;;11.60;95.20;;;;;;2065867;28;20336;-63
2021/09/14 05:17:48;;;;;;;7.67;5.73;;;11.60;95.10;;;;;;2065941;28;20265;-63
2021/09/14 05:18:49;;;;;;;9.93;6.17;;;11.60;95.00;;;;;;2065216;28;20328;-63
2021/09/14 05:19:51;;;;;;;7.60;5.55;;;11.60;94.80;;;;;;2065293;28;20182;-63
2021/09/14 05:20:52;;;;;;;6.82;5.75;;;11.60;94.50;;;;;;2065876;28;20681;-64
2021/09/14 05:21:53;;;;;;;8.38;5.65;;;11.60;94.40;;;;;;2065510;28;20712;-63
2021/09/14 05:23:10;;;;;;;7.30;5.90;;;11.60;94.40;;;;;;2065930;28;20265;-64
2021/09/14 05:24:11;;;;;;;6.60;5.55;;;11.60;94.40;;;;;;2066044;28;20177;-64
2021/09/14 05:25:12;;;;;;;10.10;6.03;;;11.60;94.40;;;;;;2065836;28;20178;-64
2021/09/14 05:26:13;;;;;;;7.07;5.77;;;11.60;94.50;;;;;;2066037;28;20189;-64
2021/09/14 05:27:14;;;;;;;6.50;5.80;;;11.60;94.40;;;;;;2065180;28;20186;-64
2021/09/14 05:28:15;;;;;;;7.17;5.60;;;11.70;94.40;;;;;;2065397;28;20254;-64
2021/09/14 05:29:15;;;;;;;5.77;4.90;;;11.70;94.20;;;;;;2065793;28;20194;-64
2021/09/14 05:30:16;;;;;;;6.20;5.40;;;11.70;94.00;;;;;;2065931;28;20179;-63
2021/09/14 05:31:17;;;;;;;6.73;5.20;;;11.70;93.90;;;;;;2065600;28;20210;-64
2021/09/14 05:32:18;;;;;;;7.27;5.00;;;11.70;93.80;;;;;;2065799;28;20699;-64
2021/09/14 05:33:19;;;;;;;6.82;5.45;;;11.70;93.70;;;;;;2064583;28;20221;-63
2021/09/14 05:34:22;;;;;;;9.13;5.67;;;11.70;93.70;;;;;;2057299;28;20186;-63
2021/09/14 05:35:32;;;;;;;5.80;4.93;;;11.70;93.60;;;;;;2065214;28;20924;-64
2021/09/14 05:36:33;;;;;;;7.90;5.05;;;11.70;93.50;;;;;;2065902;28;20787;-63
2021/09/14 05:37:34;;;;;;;6.13;4.80;;;11.70;93.40;;;;;;2065175;28;20189;-63
2021/09/14 05:38:35;;;;;;;7.10;5.23;;;11.70;94.00;;;;;;2065229;28;20237;-63
2021/09/14 05:39:36;;;;;;;6.38;4.78;;;11.70;93.60;;;;;;2065793;28;20182;-64
2021/09/14 05:40:36;;;;;;;9.40;5.13;;;11.80;93.60;;;;;;2065785;28;20206;-64
2021/09/14 05:41:37;;;;;;;7.00;5.53;;;11.80;93.70;;;;;;2065334;28;20232;-64
2021/09/14 05:42:38;;;;;;;7.33;5.90;;;11.80;93.80;;;;;;2065789;28;20178;-64
2021/09/14 05:43:38;;;;;;;6.80;5.50;;;11.80;93.90;;;;;;2065629;28;20186;-64
2021/09/14 05:44:39;;;;;;;6.60;5.70;;;11.80;93.80;;;;;;2065796;28;20190;-64
2021/09/14 05:45:40;;;;;;;8.30;6.00;;;11.90;93.80;;;;;;2065798;28;20236;-64
2021/09/14 05:46:41;;;;;;;7.60;5.97;;;11.90;93.80;;;;;;2065780;28;20269;-63
2021/09/14 05:47:41;;;;;;;6.73;5.30;;;11.90;93.90;;;;;;2065684;28;20178;-64
2021/09/14 05:48:42;;;;;;;7.17;6.13;;;12.00;94.10;;;;;;2065513;28;20179;-64
2021/09/14 05:49:43;;;;;;;6.10;5.50;;;12.00;94.10;;;;;;2065675;28;20174;-64
2021/09/14 05:50:44;;;;;;;6.27;5.60;;;12.00;94.10;;;;;;2065753;28;20233;-64
2021/09/14 05:51:45;;;;;;;7.20;6.22;;;12.00;94.10;;;;;;2065406;28;20189;-63
2021/09/14 05:52:45;;;;;;;6.97;5.50;;;12.10;94.10;;;;;;2065838;28;20658;-64
2021/09/14 05:53:46;;;;;;;7.50;5.53;;;12.10;94.10;;;;;;2065620;28;20663;-64
2021/09/14 05:54:47;;;;;;;8.07;5.73;;;12.10;94.10;;;;;;2065641;28;20181;-64
2021/09/14 05:55:48;;;;;;;11.03;6.40;;;12.10;94.10;;;;;;2065557;28;20606;-63
2021/09/14 05:56:48;;;;;;;7.47;6.10;;;12.20;94.20;;;;;;2065663;28;20201;-64
2021/09/14 05:57:49;;;;;;;7.53;6.17;;;12.20;94.20;;;;;;2065622;28;20186;-64
2021/09/14 05:58:50;;;;;;;8.37;6.10;;;12.20;94.40;;;;;;2065633;28;20256;-63
2021/09/14 05:59:50;;;;;;;7.33;6.00;;;12.20;94.50;;;;;;2064973;28;20198;-63
2021/09/14 06:00:51;;;;;;;7.90;5.80;;;12.20;94.60;;;;;;2065025;28;20190;-64
2021/09/14 06:01:52;;;;;;;7.90;5.87;;;12.20;94.40;;;;;;2065431;28;20202;-63
2021/09/14 06:02:52;;;;;;;8.00;5.60;;;12.30;94.00;;;;;;2065571;28;20193;-64
2021/09/14 06:03:53;;;;;;;6.97;5.60;;;12.20;93.70;;;;;;2065599;28;20182;-64
2021/09/14 06:04:54;;;;;;;6.00;4.97;;;12.20;93.60;;;;;;2065416;28;20646;-67
2021/09/14 06:05:55;;;;;;;7.60;5.03;;;12.30;93.70;;;;;;2065427;28;20186;-64
2021/09/14 06:06:56;;;;;;;9.23;5.63;;;12.30;93.50;;;;;;2065526;28;20178;-65
2021/09/14 06:07:57;;;;;;;6.77;5.57;;;12.30;93.40;;;;;;2065180;28;20562;-64
2021/09/14 06:08:57;;;;;;;10.20;6.63;;;12.30;93.40;;;;;;2063677;28;20236;-63
2021/09/14 06:09:59;;;;;;;7.27;6.07;;;12.40;93.50;;;;;;2060372;28;20631;-65
2021/09/14 06:11:00;;;;;;;7.40;5.80;;;12.40;93.70;;;;;;2061225;28;20498;-64
2021/09/14 06:12:01;;;;;;;7.50;5.90;;;12.50;93.80;;;;;;2060024;28;20232;-63
2021/09/14 06:13:01;;;;;;;7.03;5.90;;;12.50;93.70;;;;;;2061793;28;20605;-63
2021/09/14 06:14:02;;;;;;;6.80;5.83;;;12.50;93.90;;;;;;2057612;28;20187;-63